»·PEaware :: COA527 KIAH-KPHX

COA527 :: KIAH-KPHX

FLIGHT INFORMATION

Flight Status: Arrived
Operator:
Continental Air Lines
More flights by this operator :: More flights under this callsign
Pilot: Robby H. (353)
Aircraft: BOEING 767-200
(B762)
More flights by this aircraft type
Origin: KIAH G Bush Intercontinental/Houst
United States
Destination: KPHX Phoenix Sky Harbor Intl
United States
More flights between these airports :: More routes between these airports
Route: JCT7 JCT ELP SSO KOOLY4
File this flight plan on PilotEdge
Remarks: / V /
Altitude:
(Current/Filed)
32,000ft
Speed:
(Current/Filed)
532kts
Departed: 25-Dec-11 06:04 PM
Arrived: 25-Dec-11 07:33 PM
Distance/Time
Traveled:
875nm/1:29
Distance/Time
To Go:
Arrived

Flight Plot

Page will automatically refresh every two minutes.


Map Options




Map Legend


Flown Route
Filed Route
Departure Airport
Arrival Airport
Navaid (VOR, NDB)
Fix

Horizontal Profiles

Position Reports

Time Latitude Longitude Heading Altitude Ground
Speed
25-Dec-11 17:58 29.985117 -95.348923 269 109ft 0kts
25-Dec-11 17:59 29.985118 -95.348503 269 109ft 2kts
25-Dec-11 18:01 29.985876 -95.353338 321 109ft 17kts
25-Dec-11 18:02 29.987674 -95.356574 240 109ft 15kts
25-Dec-11 18:03 29.959376 -95.340436 153 342ft 213kts
25-Dec-11 18:04 29.901658 -95.344280 242 2744ft 256kts
25-Dec-11 18:05 29.909605 -95.410674 287 4313ft 256kts
25-Dec-11 18:06 29.930153 -95.492812 283 6136ft 273kts
25-Dec-11 18:07 29.951029 -95.576634 282 7913ft 278kts
25-Dec-11 18:08 29.972701 -95.664293 286 9747ft 281kts
25-Dec-11 18:09 29.995908 -95.758023 286 11266ft 336kts
25-Dec-11 18:10 30.023927 -95.871656 286 12294ft 402kts
25-Dec-11 18:11 30.054894 -95.998283 286 13287ft 412kts
25-Dec-11 18:12 30.082001 -96.128331 280 14293ft 419kts
25-Dec-11 18:13 30.101874 -96.262866 280 15287ft 425kts
25-Dec-11 18:14 30.122519 -96.399188 280 16271ft 431kts
25-Dec-11 18:15 30.143345 -96.536139 280 17235ft 437kts
25-Dec-11 18:16 30.164436 -96.675572 280 18210ft 443kts
25-Dec-11 18:17 30.185683 -96.817119 280 19178ft 449kts
25-Dec-11 18:18 30.207184 -96.961378 280 20157ft 455kts
25-Dec-11 18:19 30.228558 -97.105961 280 21113ft 462kts
25-Dec-11 18:20 30.253845 -97.278559 279 22231ft 470kts
25-Dec-11 18:21 30.272232 -97.405271 279 23038ft 475kts
25-Dec-11 18:22 30.294115 -97.557232 279 23972ft 482kts
25-Dec-11 18:23 30.315096 -97.701647 272 24954ft 442kts
25-Dec-11 18:24 30.334916 -97.843595 272 25959ft 445kts
25-Dec-11 18:25 30.354932 -97.986057 272 26960ft 445kts
25-Dec-11 18:26 30.374580 -98.126618 272 27945ft 443kts
25-Dec-11 18:27 30.394192 -98.268268 272 28941ft 439kts
25-Dec-11 18:28 30.413336 -98.407724 271 29932ft 433kts
25-Dec-11 18:29 30.431805 -98.543182 271 30908ft 425kts
25-Dec-11 18:30 30.450059 -98.678186 271 31904ft 415kts
25-Dec-11 18:31 30.467772 -98.811459 271 32060ft 424kts
25-Dec-11 18:32 30.486031 -98.949111 271 32067ft 435kts
25-Dec-11 18:33 30.504327 -99.088936 269 32086ft 436kts
25-Dec-11 18:34 30.506416 -99.226479 276 32087ft 437kts
25-Dec-11 18:35 30.543519 -99.362969 278 32073ft 447kts
25-Dec-11 18:36 30.575780 -99.503710 275 32067ft 445kts
25-Dec-11 18:37 30.605346 -99.643398 275 32072ft 444kts
25-Dec-11 18:38 30.634703 -99.783382 275 32071ft 444kts
25-Dec-11 18:39 30.663900 -99.923062 275 32073ft 444kts
25-Dec-11 18:40 30.692534 -100.061018 275 32071ft 444kts
25-Dec-11 18:41 30.721344 -100.200880 275 32074ft 444kts
25-Dec-11 18:42 30.750067 -100.340703 275 32080ft 444kts
25-Dec-11 18:43 30.778804 -100.481523 275 32081ft 444kts
25-Dec-11 18:44 30.807284 -100.622029 275 32088ft 444kts
25-Dec-11 18:45 30.835197 -100.760663 275 32087ft 443kts
25-Dec-11 18:46 30.863471 -100.901624 275 32091ft 443kts
25-Dec-11 18:47 30.891430 -101.042155 275 32088ft 443kts
25-Dec-11 18:48 30.919193 -101.182268 275 32094ft 442kts
25-Dec-11 18:49 30.946498 -101.321042 275 32089ft 442kts
25-Dec-11 18:50 30.974050 -101.461695 275 32084ft 442kts
25-Dec-11 18:51 31.001198 -101.601397 275 32085ft 442kts
25-Dec-11 18:52 31.028153 -101.741002 276 32074ft 441kts
25-Dec-11 18:53 31.054988 -101.880645 276 32066ft 442kts
25-Dec-11 18:54 31.077378 -101.998115 277 32073ft 441kts
25-Dec-11 18:55 31.103967 -102.137936 277 32056ft 442kts
25-Dec-11 18:56 31.130627 -102.279295 278 32064ft 443kts
25-Dec-11 18:57 31.157067 -102.420255 278 32064ft 443kts
25-Dec-11 18:58 31.183165 -102.560618 277 32067ft 443kts
25-Dec-11 18:59 31.209253 -102.701292 278 32071ft 443kts
25-Dec-11 19:00 31.233571 -102.833435 277 32074ft 442kts
25-Dec-11 19:01 31.259209 -102.973788 278 32076ft 443kts
25-Dec-11 19:02 31.284858 -103.114904 277 32077ft 442kts
25-Dec-11 19:03 31.310169 -103.255418 278 32083ft 444kts
25-Dec-11 19:04 31.335879 -103.398730 279 32093ft 444kts
25-Dec-11 19:05 31.360771 -103.538467 278 32089ft 444kts
25-Dec-11 19:06 31.385924 -103.680877 278 32090ft 445kts
25-Dec-11 19:07 31.410022 -103.817905 278 32088ft 444kts
25-Dec-11 19:08 31.633695 -105.125807 281 29269ft 458kts
25-Dec-11 19:09 32.322929 -109.315033 288 26994ft 497kts
25-Dec-11 19:10 32.336901 -109.482096 282 27386ft 507kts
25-Dec-11 19:11 32.361932 -109.640610 290 29162ft 480kts
25-Dec-11 19:12 32.395692 -109.785263 292 30872ft 456kts
25-Dec-11 19:13 32.429957 -109.927084 292 32001ft 446kts
25-Dec-11 19:14 32.464561 -110.071153 291 32000ft 462kts
25-Dec-11 19:15 32.499611 -110.218914 291 31991ft 478kts
25-Dec-11 19:16 32.536262 -110.374542 291 31982ft 493kts
25-Dec-11 19:17 32.577185 -110.532794 296 31966ft 500kts
25-Dec-11 19:18 32.634803 -110.674522 304 31957ft 495kts
25-Dec-11 19:19 32.707483 -110.803866 318 31959ft 486kts
25-Dec-11 19:20 32.806052 -110.914943 322 31932ft 478kts
25-Dec-11 19:21 32.904554 -111.022210 322 31869ft 478kts
25-Dec-11 19:22 33.000758 -111.127164 321 28415ft 488kts
25-Dec-11 19:23 33.103597 -111.239601 322 21965ft 514kts
25-Dec-11 19:24 33.208854 -111.355447 321 15548ft 510kts
25-Dec-11 19:25 33.311254 -111.468815 318 9031ft 487kts
25-Dec-11 19:26 33.406806 -111.575115 316 4779ft 428kts
25-Dec-11 19:27 33.437231 -111.691663 266 4959ft 352kts
25-Dec-11 19:28 33.431912 -111.790574 268 3761ft 257kts
25-Dec-11 19:29 33.430525 -111.874412 269 2275ft 232kts
25-Dec-11 19:30 33.430138 -111.945652 269 1683ft 212kts
25-Dec-11 19:31 33.431080 -112.005254 269 1149ft 136kts
25-Dec-11 19:32 33.431062 -112.019039 270 1147ft 0kts

Navigation Log

Ident Type
Flight plan parsing failed, navigation log unavailable